sensor_id;sensor_type;location;lat;lon;timestamp;P1;durP1;ratioP1;P2;durP2;ratioP2
72201;SDS011;60105;54.956;73.412;2022-10-12T00:00:26;11.75;;;7.68;;
72201;SDS011;60105;54.956;73.412;2022-10-12T00:02:55;12.43;;;7.95;;
72201;SDS011;60105;54.956;73.412;2022-10-12T00:05:32;17.98;;;8.90;;
72201;SDS011;60105;54.956;73.412;2022-10-12T00:08:03;20.15;;;9.10;;
72201;SDS011;60105;54.956;73.412;2022-10-12T00:10:38;15.33;;;9.00;;
72201;SDS011;60105;54.956;73.412;2022-10-12T00:13:06;14.45;;;7.85;;
72201;SDS011;60105;54.956;73.412;2022-10-12T00:15:35;12.63;;;7.10;;
72201;SDS011;60105;54.956;73.412;2022-10-12T00:18:02;11.55;;;7.30;;
72201;SDS011;60105;54.956;73.412;2022-10-12T00:20:32;9.25;;;6.88;;
72201;SDS011;60105;54.956;73.412;2022-10-12T00:23:09;14.63;;;7.53;;
72201;SDS011;60105;54.956;73.412;2022-10-12T00:25:36;10.90;;;6.63;;
72201;SDS011;60105;54.956;73.412;2022-10-12T00:28:04;10.70;;;6.70;;
72201;SDS011;60105;54.956;73.412;2022-10-12T00:30:37;15.43;;;7.22;;
72201;SDS011;60105;54.956;73.412;2022-10-12T00:33:04;15.10;;;7.45;;
72201;SDS011;60105;54.956;73.412;2022-10-12T00:35:31;18.10;;;8.63;;
72201;SDS011;60105;54.956;73.412;2022-10-12T00:38:07;14.13;;;8.40;;
72201;SDS011;60105;54.956;73.412;2022-10-12T00:40:33;12.18;;;6.50;;
72201;SDS011;60105;54.956;73.412;2022-10-12T00:42:59;15.52;;;8.35;;
72201;SDS011;60105;54.956;73.412;2022-10-12T00:45:26;19.05;;;7.85;;
72201;SDS011;60105;54.956;73.412;2022-10-12T00:47:56;14.50;;;7.27;;
72201;SDS011;60105;54.956;73.412;2022-10-12T00:50:25;15.20;;;8.82;;
72201;SDS011;60105;54.956;73.412;2022-10-12T00:52:59;14.60;;;8.10;;
72201;SDS011;60105;54.956;73.412;2022-10-12T00:55:34;19.92;;;9.25;;
72201;SDS011;60105;54.956;73.412;2022-10-12T00:58:06;17.67;;;8.63;;
72201;SDS011;60105;54.956;73.412;2022-10-12T01:00:43;22.37;;;10.03;;
72201;SDS011;60105;54.956;73.412;2022-10-12T01:03:09;20.98;;;9.65;;
72201;SDS011;60105;54.956;73.412;2022-10-12T01:05:39;23.67;;;11.38;;
72201;SDS011;60105;54.956;73.412;2022-10-12T01:08:11;23.38;;;11.77;;
72201;SDS011;60105;54.956;73.412;2022-10-12T01:10:37;24.50;;;11.23;;
72201;SDS011;60105;54.956;73.412;2022-10-12T01:13:04;27.33;;;13.37;;
72201;SDS011;60105;54.956;73.412;2022-10-12T01:15:35;32.00;;;14.02;;
72201;SDS011;60105;54.956;73.412;2022-10-12T01:29:03;23.33;;;10.55;;
72201;SDS011;60105;54.956;73.412;2022-10-12T01:37:15;18.60;;;9.38;;
72201;SDS011;60105;54.956;73.412;2022-10-12T01:40:06;19.67;;;9.60;;
72201;SDS011;60105;54.956;73.412;2022-10-12T01:42:47;30.73;;;11.60;;
72201;SDS011;60105;54.956;73.412;2022-10-12T01:45:15;20.83;;;10.77;;
72201;SDS011;60105;54.956;73.412;2022-10-12T01:47:45;22.85;;;11.18;;
72201;SDS011;60105;54.956;73.412;2022-10-12T01:50:20;21.50;;;10.55;;
72201;SDS011;60105;54.956;73.412;2022-10-12T01:55:56;14.35;;;8.68;;
72201;SDS011;60105;54.956;73.412;2022-10-12T01:58:37;16.73;;;8.45;;
72201;SDS011;60105;54.956;73.412;2022-10-12T02:01:20;19.38;;;8.80;;
72201;SDS011;60105;54.956;73.412;2022-10-12T02:06:43;20.63;;;10.20;;
72201;SDS011;60105;54.956;73.412;2022-10-12T02:09:23;36.63;;;10.80;;
72201;SDS011;60105;54.956;73.412;2022-10-12T02:11:59;33.08;;;10.73;;
72201;SDS011;60105;54.956;73.412;2022-10-12T02:14:41;16.05;;;9.20;;
72201;SDS011;60105;54.956;73.412;2022-10-12T02:17:11;16.63;;;8.65;;
72201;SDS011;60105;54.956;73.412;2022-10-12T02:19:42;21.80;;;11.20;;
72201;SDS011;60105;54.956;73.412;2022-10-12T02:22:13;22.27;;;11.10;;
72201;SDS011;60105;54.956;73.412;2022-10-12T02:24:42;17.98;;;9.35;;
72201;SDS011;60105;54.956;73.412;2022-10-12T02:27:12;25.83;;;10.20;;
72201;SDS011;60105;54.956;73.412;2022-10-12T02:29:41;21.92;;;9.40;;
72201;SDS011;60105;54.956;73.412;2022-10-12T02:34:43;23.40;;;10.40;;
72201;SDS011;60105;54.956;73.412;2022-10-12T02:37:33;28.55;;;10.75;;
72201;SDS011;60105;54.956;73.412;2022-10-12T02:42:56;20.08;;;10.90;;
72201;SDS011;60105;54.956;73.412;2022-10-12T02:45:27;19.50;;;10.00;;
72201;SDS011;60105;54.956;73.412;2022-10-12T02:47:54;25.90;;;11.32;;
72201;SDS011;60105;54.956;73.412;2022-10-12T02:50:28;18.02;;;9.25;;
72201;SDS011;60105;54.956;73.412;2022-10-12T02:52:55;18.42;;;9.80;;
72201;SDS011;60105;54.956;73.412;2022-10-12T02:55:23;23.00;;;9.95;;
72201;SDS011;60105;54.956;73.412;2022-10-12T02:57:50;20.37;;;9.80;;
72201;SDS011;60105;54.956;73.412;2022-10-12T03:00:16;23.13;;;11.10;;
72201;SDS011;60105;54.956;73.412;2022-10-12T03:02:43;23.95;;;9.57;;
72201;SDS011;60105;54.956;73.412;2022-10-12T03:05:09;24.83;;;10.65;;
72201;SDS011;60105;54.956;73.412;2022-10-12T03:07:46;24.80;;;10.23;;
72201;SDS011;60105;54.956;73.412;2022-10-12T03:10:12;23.63;;;10.13;;
72201;SDS011;60105;54.956;73.412;2022-10-12T03:12:38;23.73;;;10.30;;
72201;SDS011;60105;54.956;73.412;2022-10-12T03:15:04;21.85;;;9.88;;
72201;SDS011;60105;54.956;73.412;2022-10-12T03:17:31;23.40;;;10.70;;
72201;SDS011;60105;54.956;73.412;2022-10-12T03:19:57;21.30;;;10.45;;
72201;SDS011;60105;54.956;73.412;2022-10-12T03:22:23;17.60;;;9.33;;
72201;SDS011;60105;54.956;73.412;2022-10-12T03:24:49;26.63;;;12.25;;
72201;SDS011;60105;54.956;73.412;2022-10-12T03:27:16;21.00;;;9.98;;
72201;SDS011;60105;54.956;73.412;2022-10-12T03:29:42;21.98;;;10.52;;
72201;SDS011;60105;54.956;73.412;2022-10-12T03:32:08;16.55;;;10.20;;
72201;SDS011;60105;54.956;73.412;2022-10-12T03:34:34;18.57;;;9.50;;
72201;SDS011;60105;54.956;73.412;2022-10-12T03:37:10;21.25;;;11.70;;
72201;SDS011;60105;54.956;73.412;2022-10-12T03:39:37;21.17;;;11.25;;
72201;SDS011;60105;54.956;73.412;2022-10-12T03:42:03;18.83;;;11.48;;
72201;SDS011;60105;54.956;73.412;2022-10-12T03:44:29;22.60;;;12.20;;
72201;SDS011;60105;54.956;73.412;2022-10-12T03:46:55;17.43;;;10.77;;
72201;SDS011;60105;54.956;73.412;2022-10-12T03:49:21;21.40;;;10.90;;
72201;SDS011;60105;54.956;73.412;2022-10-12T03:51:48;18.45;;;11.55;;
72201;SDS011;60105;54.956;73.412;2022-10-12T03:54:14;22.45;;;12.02;;
72201;SDS011;60105;54.956;73.412;2022-10-12T03:56:40;18.27;;;10.68;;
72201;SDS011;60105;54.956;73.412;2022-10-12T03:59:07;19.83;;;10.43;;
72201;SDS011;60105;54.956;73.412;2022-10-12T04:01:33;19.05;;;10.02;;
72201;SDS011;60105;54.956;73.412;2022-10-12T04:03:59;17.60;;;9.90;;
72201;SDS011;60105;54.956;73.412;2022-10-12T04:06:25;21.58;;;12.00;;
72201;SDS011;60105;54.956;73.412;2022-10-12T04:08:51;18.20;;;10.48;;
72201;SDS011;60105;54.956;73.412;2022-10-12T04:11:17;16.40;;;9.73;;
72201;SDS011;60105;54.956;73.412;2022-10-12T04:13:45;24.80;;;10.52;;
72201;SDS011;60105;54.956;73.412;2022-10-12T04:16:11;17.10;;;9.95;;
72201;SDS011;60105;54.956;73.412;2022-10-12T04:18:37;20.92;;;10.07;;
72201;SDS011;60105;54.956;73.412;2022-10-12T04:21:05;17.92;;;9.75;;
72201;SDS011;60105;54.956;73.412;2022-10-12T04:23:34;18.53;;;9.80;;
72201;SDS011;60105;54.956;73.412;2022-10-12T04:26:05;22.42;;;10.15;;
72201;SDS011;60105;54.956;73.412;2022-10-12T04:28:32;19.25;;;9.70;;
72201;SDS011;60105;54.956;73.412;2022-10-12T04:30:58;20.52;;;11.18;;
72201;SDS011;60105;54.956;73.412;2022-10-12T04:33:25;17.55;;;10.38;;
72201;SDS011;60105;54.956;73.412;2022-10-12T04:35:51;17.30;;;11.60;;
72201;SDS011;60105;54.956;73.412;2022-10-12T04:38:17;19.35;;;11.93;;
72201;SDS011;60105;54.956;73.412;2022-10-12T04:40:47;27.42;;;12.60;;
72201;SDS011;60105;54.956;73.412;2022-10-12T04:43:18;23.48;;;12.02;;
72201;SDS011;60105;54.956;73.412;2022-10-12T04:45:52;22.92;;;12.75;;
72201;SDS011;60105;54.956;73.412;2022-10-12T04:48:19;26.87;;;12.97;;
72201;SDS011;60105;54.956;73.412;2022-10-12T04:50:45;26.25;;;13.25;;
72201;SDS011;60105;54.956;73.412;2022-10-12T04:53:12;25.92;;;14.52;;
72201;SDS011;60105;54.956;73.412;2022-10-12T04:55:38;29.40;;;15.35;;
72201;SDS011;60105;54.956;73.412;2022-10-12T04:58:04;35.42;;;15.73;;
72201;SDS011;60105;54.956;73.412;2022-10-12T05:00:31;23.27;;;13.33;;
72201;SDS011;60105;54.956;73.412;2022-10-12T05:03:03;24.63;;;13.15;;
72201;SDS011;60105;54.956;73.412;2022-10-12T05:05:38;23.40;;;13.02;;
72201;SDS011;60105;54.956;73.412;2022-10-12T05:08:04;33.72;;;14.98;;
72201;SDS011;60105;54.956;73.412;2022-10-12T05:10:30;32.50;;;17.42;;
72201;SDS011;60105;54.956;73.412;2022-10-12T05:12:57;23.77;;;13.40;;
72201;SDS011;60105;54.956;73.412;2022-10-12T05:15:23;24.33;;;13.40;;
72201;SDS011;60105;54.956;73.412;2022-10-12T05:17:50;21.83;;;12.77;;
72201;SDS011;60105;54.956;73.412;2022-10-12T05:20:16;22.08;;;12.63;;
72201;SDS011;60105;54.956;73.412;2022-10-12T05:22:53;20.67;;;12.10;;
72201;SDS011;60105;54.956;73.412;2022-10-12T05:25:19;21.27;;;12.97;;
72201;SDS011;60105;54.956;73.412;2022-10-12T05:27:45;19.67;;;12.05;;
72201;SDS011;60105;54.956;73.412;2022-10-12T05:30:16;19.05;;;12.23;;
72201;SDS011;60105;54.956;73.412;2022-10-12T05:32:42;18.00;;;11.52;;
72201;SDS011;60105;54.956;73.412;2022-10-12T05:35:19;24.92;;;12.57;;
72201;SDS011;60105;54.956;73.412;2022-10-12T05:37:45;18.20;;;12.57;;
72201;SDS011;60105;54.956;73.412;2022-10-12T05:40:12;23.42;;;13.25;;
72201;SDS011;60105;54.956;73.412;2022-10-12T05:42:38;22.10;;;13.43;;
72201;SDS011;60105;54.956;73.412;2022-10-12T05:45:07;19.67;;;12.40;;
72201;SDS011;60105;54.956;73.412;2022-10-12T05:47:33;21.20;;;12.25;;
72201;SDS011;60105;54.956;73.412;2022-10-12T05:50:05;24.03;;;13.33;;
72201;SDS011;60105;54.956;73.412;2022-10-12T05:52:36;22.00;;;14.27;;
72201;SDS011;60105;54.956;73.412;2022-10-12T05:55:02;24.75;;;14.05;;
72201;SDS011;60105;54.956;73.412;2022-10-12T05:57:29;24.33;;;13.98;;
72201;SDS011;60105;54.956;73.412;2022-10-12T05:59:55;29.67;;;14.77;;
72201;SDS011;60105;54.956;73.412;2022-10-12T06:02:21;25.23;;;13.17;;
72201;SDS011;60105;54.956;73.412;2022-10-12T06:04:47;25.73;;;15.40;;
72201;SDS011;60105;54.956;73.412;2022-10-12T06:07:14;22.58;;;13.52;;
72201;SDS011;60105;54.956;73.412;2022-10-12T06:09:40;26.23;;;14.90;;
72201;SDS011;60105;54.956;73.412;2022-10-12T06:12:07;24.65;;;13.23;;
72201;SDS011;60105;54.956;73.412;2022-10-12T06:14:33;19.07;;;13.03;;
72201;SDS011;60105;54.956;73.412;2022-10-12T06:17:00;29.35;;;13.43;;
72201;SDS011;60105;54.956;73.412;2022-10-12T06:19:31;21.88;;;12.25;;
72201;SDS011;60105;54.956;73.412;2022-10-12T06:21:58;24.73;;;12.52;;
72201;SDS011;60105;54.956;73.412;2022-10-12T06:24:24;20.35;;;13.55;;
72201;SDS011;60105;54.956;73.412;2022-10-12T06:26:50;28.20;;;13.20;;
72201;SDS011;60105;54.956;73.412;2022-10-12T06:29:16;25.70;;;12.93;;
72201;SDS011;60105;54.956;73.412;2022-10-12T06:31:52;28.88;;;13.07;;
72201;SDS011;60105;54.956;73.412;2022-10-12T06:34:20;30.00;;;14.57;;
72201;SDS011;60105;54.956;73.412;2022-10-12T06:36:47;27.10;;;13.20;;
72201;SDS011;60105;54.956;73.412;2022-10-12T06:39:14;23.03;;;14.47;;
72201;SDS011;60105;54.956;73.412;2022-10-12T06:41:40;32.90;;;14.02;;
72201;SDS011;60105;54.956;73.412;2022-10-12T06:44:13;22.98;;;13.88;;
72201;SDS011;60105;54.956;73.412;2022-10-12T06:46:49;29.17;;;14.60;;
72201;SDS011;60105;54.956;73.412;2022-10-12T06:49:16;30.92;;;15.70;;
72201;SDS011;60105;54.956;73.412;2022-10-12T06:51:42;24.90;;;14.80;;
72201;SDS011;60105;54.956;73.412;2022-10-12T06:54:08;28.38;;;15.00;;
72201;SDS011;60105;54.956;73.412;2022-10-12T06:56:39;32.13;;;15.23;;
72201;SDS011;60105;54.956;73.412;2022-10-12T06:59:05;27.30;;;15.48;;
72201;SDS011;60105;54.956;73.412;2022-10-12T07:01:32;37.10;;;18.17;;
72201;SDS011;60105;54.956;73.412;2022-10-12T07:03:58;34.20;;;15.70;;
72201;SDS011;60105;54.956;73.412;2022-10-12T07:06:33;34.65;;;17.77;;
72201;SDS011;60105;54.956;73.412;2022-10-12T07:09:00;39.80;;;19.50;;
72201;SDS011;60105;54.956;73.412;2022-10-12T07:11:26;36.80;;;17.23;;
72201;SDS011;60105;54.956;73.412;2022-10-12T07:13:52;34.55;;;17.95;;
72201;SDS011;60105;54.956;73.412;2022-10-12T07:16:18;39.57;;;19.03;;
72201;SDS011;60105;54.956;73.412;2022-10-12T07:18:49;49.00;;;20.65;;
72201;SDS011;60105;54.956;73.412;2022-10-12T07:21:16;42.60;;;20.60;;
72201;SDS011;60105;54.956;73.412;2022-10-12T07:23:42;45.83;;;21.90;;
72201;SDS011;60105;54.956;73.412;2022-10-12T07:26:08;45.88;;;24.75;;
72201;SDS011;60105;54.956;73.412;2022-10-12T07:28:36;36.20;;;19.23;;
72201;SDS011;60105;54.956;73.412;2022-10-12T07:31:03;37.88;;;20.25;;
72201;SDS011;60105;54.956;73.412;2022-10-12T07:33:34;30.13;;;16.90;;
72201;SDS011;60105;54.956;73.412;2022-10-12T07:36:03;26.90;;;15.75;;
72201;SDS011;60105;54.956;73.412;2022-10-12T07:38:30;27.15;;;16.20;;
72201;SDS011;60105;54.956;73.412;2022-10-12T07:40:57;32.93;;;15.37;;
72201;SDS011;60105;54.956;73.412;2022-10-12T07:43:25;24.02;;;13.27;;
72201;SDS011;60105;54.956;73.412;2022-10-12T07:45:51;26.30;;;12.68;;
72201;SDS011;60105;54.956;73.412;2022-10-12T07:48:18;26.42;;;12.27;;
72201;SDS011;60105;54.956;73.412;2022-10-12T07:50:44;22.30;;;12.68;;
72201;SDS011;60105;54.956;73.412;2022-10-12T07:53:11;22.30;;;12.50;;
72201;SDS011;60105;54.956;73.412;2022-10-12T07:55:37;17.83;;;11.90;;
72201;SDS011;60105;54.956;73.412;2022-10-12T07:58:04;18.25;;;11.95;;
72201;SDS011;60105;54.956;73.412;2022-10-12T08:00:30;22.40;;;13.52;;
72201;SDS011;60105;54.956;73.412;2022-10-12T08:02:57;18.98;;;11.73;;
72201;SDS011;60105;54.956;73.412;2022-10-12T08:05:24;20.30;;;12.50;;
72201;SDS011;60105;54.956;73.412;2022-10-12T08:07:51;26.35;;;13.35;;
72201;SDS011;60105;54.956;73.412;2022-10-12T08:10:17;24.25;;;12.45;;
72201;SDS011;60105;54.956;73.412;2022-10-12T08:12:44;26.70;;;15.18;;
72201;SDS011;60105;54.956;73.412;2022-10-12T08:15:11;24.30;;;13.52;;
72201;SDS011;60105;54.956;73.412;2022-10-12T08:17:38;22.53;;;13.20;;
72201;SDS011;60105;54.956;73.412;2022-10-12T08:20:05;24.95;;;13.75;;
72201;SDS011;60105;54.956;73.412;2022-10-12T08:22:32;31.08;;;14.38;;
72201;SDS011;60105;54.956;73.412;2022-10-12T08:24:58;24.05;;;14.13;;
72201;SDS011;60105;54.956;73.412;2022-10-12T08:27:33;31.95;;;16.08;;
72201;SDS011;60105;54.956;73.412;2022-10-12T08:30:00;25.67;;;14.17;;
72201;SDS011;60105;54.956;73.412;2022-10-12T08:32:36;32.25;;;14.75;;
72201;SDS011;60105;54.956;73.412;2022-10-12T08:35:03;26.10;;;15.15;;
72201;SDS011;60105;54.956;73.412;2022-10-12T08:37:30;23.00;;;13.25;;
72201;SDS011;60105;54.956;73.412;2022-10-12T08:40:01;22.48;;;13.07;;
72201;SDS011;60105;54.956;73.412;2022-10-12T08:48:24;23.58;;;14.82;;
72201;SDS011;60105;54.956;73.412;2022-10-12T08:51:11;24.02;;;13.98;;
72201;SDS011;60105;54.956;73.412;2022-10-12T08:53:46;23.20;;;11.90;;
72201;SDS011;60105;54.956;73.412;2022-10-12T08:56:21;25.33;;;13.87;;
72201;SDS011;60105;54.956;73.412;2022-10-12T08:58:48;23.42;;;13.25;;
72201;SDS011;60105;54.956;73.412;2022-10-12T09:06:41;25.30;;;13.40;;
72201;SDS011;60105;54.956;73.412;2022-10-12T09:09:45;21.30;;;13.07;;
72201;SDS011;60105;54.956;73.412;2022-10-12T09:14:56;25.67;;;14.35;;
72201;SDS011;60105;54.956;73.412;2022-10-12T09:17:49;21.13;;;13.35;;
72201;SDS011;60105;54.956;73.412;2022-10-12T09:22:58;24.10;;;14.20;;
72201;SDS011;60105;54.956;73.412;2022-10-12T09:25:34;24.17;;;13.65;;
72201;SDS011;60105;54.956;73.412;2022-10-12T09:33:57;25.70;;;14.00;;
72201;SDS011;60105;54.956;73.412;2022-10-12T09:36:36;25.30;;;13.47;;
72201;SDS011;60105;54.956;73.412;2022-10-12T09:39:05;22.77;;;14.63;;
72201;SDS011;60105;54.956;73.412;2022-10-12T09:41:39;25.08;;;13.88;;
72201;SDS011;60105;54.956;73.412;2022-10-12T09:44:11;25.67;;;13.80;;
72201;SDS011;60105;54.956;73.412;2022-10-12T09:47:03;21.73;;;14.55;;
72201;SDS011;60105;54.956;73.412;2022-10-12T09:49:47;24.73;;;15.13;;
72201;SDS011;60105;54.956;73.412;2022-10-12T09:52:21;26.75;;;14.75;;
72201;SDS011;60105;54.956;73.412;2022-10-12T09:58:04;35.55;;;17.27;;
72201;SDS011;60105;54.956;73.412;2022-10-12T10:00:33;30.67;;;17.67;;
72201;SDS011;60105;54.956;73.412;2022-10-12T10:03:00;29.00;;;17.27;;
72201;SDS011;60105;54.956;73.412;2022-10-12T10:05:28;31.30;;;18.23;;
72201;SDS011;60105;54.956;73.412;2022-10-12T10:08:18;33.55;;;17.77;;
72201;SDS011;60105;54.956;73.412;2022-10-12T10:10:56;32.90;;;19.48;;
72201;SDS011;60105;54.956;73.412;2022-10-12T10:13:27;31.75;;;18.15;;
72201;SDS011;60105;54.956;73.412;2022-10-12T10:16:13;30.83;;;16.40;;
72201;SDS011;60105;54.956;73.412;2022-10-12T10:18:41;35.30;;;17.00;;
72201;SDS011;60105;54.956;73.412;2022-10-12T10:21:26;38.78;;;17.20;;
72201;SDS011;60105;54.956;73.412;2022-10-12T10:24:00;31.30;;;17.52;;
72201;SDS011;60105;54.956;73.412;2022-10-12T10:26:30;31.25;;;17.45;;
72201;SDS011;60105;54.956;73.412;2022-10-12T10:37:43;39.35;;;17.48;;
72201;SDS011;60105;54.956;73.412;2022-10-12T10:40:23;36.15;;;16.83;;
72201;SDS011;60105;54.956;73.412;2022-10-12T10:42:53;28.27;;;18.27;;
72201;SDS011;60105;54.956;73.412;2022-10-12T10:45:25;28.23;;;17.80;;
72201;SDS011;60105;54.956;73.412;2022-10-12T10:48:08;35.33;;;16.65;;
72201;SDS011;60105;54.956;73.412;2022-10-12T10:50:41;29.88;;;17.15;;
72201;SDS011;60105;54.956;73.412;2022-10-12T10:53:23;32.03;;;17.92;;
72201;SDS011;60105;54.956;73.412;2022-10-12T10:58:53;41.70;;;19.10;;
72201;SDS011;60105;54.956;73.412;2022-10-12T11:01:27;34.33;;;16.60;;
72201;SDS011;60105;54.956;73.412;2022-10-12T11:04:10;30.90;;;17.73;;
72201;SDS011;60105;54.956;73.412;2022-10-12T11:06:40;32.30;;;17.48;;
72201;SDS011;60105;54.956;73.412;2022-10-12T11:11:37;31.95;;;17.75;;
72201;SDS011;60105;54.956;73.412;2022-10-12T11:14:18;33.78;;;17.35;;
72201;SDS011;60105;54.956;73.412;2022-10-12T11:16:49;32.13;;;17.80;;
72201;SDS011;60105;54.956;73.412;2022-10-12T11:22:24;37.53;;;17.80;;
72201;SDS011;60105;54.956;73.412;2022-10-12T11:25:13;35.88;;;17.58;;
72201;SDS011;60105;54.956;73.412;2022-10-12T11:27:56;25.30;;;16.45;;
72201;SDS011;60105;54.956;73.412;2022-10-12T11:30:24;36.00;;;19.80;;
72201;SDS011;60105;54.956;73.412;2022-10-12T11:33:11;44.88;;;21.55;;
72201;SDS011;60105;54.956;73.412;2022-10-12T11:35:48;45.27;;;24.73;;
72201;SDS011;60105;54.956;73.412;2022-10-12T11:38:25;46.63;;;24.02;;
72201;SDS011;60105;54.956;73.412;2022-10-12T11:41:08;49.35;;;25.15;;
72201;SDS011;60105;54.956;73.412;2022-10-12T11:43:43;46.47;;;23.85;;
72201;SDS011;60105;54.956;73.412;2022-10-12T11:46:11;48.47;;;23.83;;
72201;SDS011;60105;54.956;73.412;2022-10-12T11:48:45;48.10;;;22.23;;
72201;SDS011;60105;54.956;73.412;2022-10-12T11:51:17;44.33;;;21.45;;
72201;SDS011;60105;54.956;73.412;2022-10-12T11:53:49;58.53;;;24.88;;
72201;SDS011;60105;54.956;73.412;2022-10-12T11:56:29;43.05;;;22.60;;
72201;SDS011;60105;54.956;73.412;2022-10-12T11:59:15;49.42;;;23.90;;
72201;SDS011;60105;54.956;73.412;2022-10-12T12:01:56;46.40;;;23.57;;
72201;SDS011;60105;54.956;73.412;2022-10-12T12:04:32;47.72;;;21.33;;
72201;SDS011;60105;54.956;73.412;2022-10-12T12:09:57;41.05;;;21.08;;
72201;SDS011;60105;54.956;73.412;2022-10-12T12:12:25;40.13;;;20.42;;
72201;SDS011;60105;54.956;73.412;2022-10-12T12:14:58;49.63;;;22.07;;
72201;SDS011;60105;54.956;73.412;2022-10-12T12:17:40;46.55;;;20.42;;
72201;SDS011;60105;54.956;73.412;2022-10-12T12:23:31;45.63;;;21.95;;
72201;SDS011;60105;54.956;73.412;2022-10-12T12:28:40;40.17;;;19.17;;
72201;SDS011;60105;54.956;73.412;2022-10-12T12:33:38;52.85;;;23.50;;
72201;SDS011;60105;54.956;73.412;2022-10-12T12:41:11;60.27;;;24.37;;
72201;SDS011;60105;54.956;73.412;2022-10-12T12:46:17;56.83;;;24.98;;
72201;SDS011;60105;54.956;73.412;2022-10-12T12:51:22;48.30;;;23.02;;
72201;SDS011;60105;54.956;73.412;2022-10-12T12:54:16;32.57;;;13.90;;
72201;SDS011;60105;54.956;73.412;2022-10-12T12:59:47;46.88;;;19.10;;
72201;SDS011;60105;54.956;73.412;2022-10-12T13:05:18;36.40;;;15.25;;
72201;SDS011;60105;54.956;73.412;2022-10-12T13:13:26;44.42;;;17.30;;
72201;SDS011;60105;54.956;73.412;2022-10-12T13:18:50;37.28;;;16.65;;
72201;SDS011;60105;54.956;73.412;2022-10-12T13:21:38;33.60;;;16.23;;
72201;SDS011;60105;54.956;73.412;2022-10-12T13:26:44;50.15;;;17.52;;
72201;SDS011;60105;54.956;73.412;2022-10-12T13:29:28;39.35;;;16.02;;
72201;SDS011;60105;54.956;73.412;2022-10-12T13:32:10;43.92;;;16.10;;
72201;SDS011;60105;54.956;73.412;2022-10-12T13:35:09;40.13;;;14.70;;
72201;SDS011;60105;54.956;73.412;2022-10-12T13:37:40;37.92;;;16.10;;
72201;SDS011;60105;54.956;73.412;2022-10-12T13:40:25;34.20;;;15.48;;
72201;SDS011;60105;54.956;73.412;2022-10-12T13:42:52;38.08;;;15.88;;
72201;SDS011;60105;54.956;73.412;2022-10-12T13:45:19;44.92;;;14.32;;
72201;SDS011;60105;54.956;73.412;2022-10-12T13:48:02;40.00;;;15.47;;
72201;SDS011;60105;54.956;73.412;2022-10-12T13:50:30;41.58;;;17.00;;
72201;SDS011;60105;54.956;73.412;2022-10-12T13:52:57;50.13;;;18.38;;
72201;SDS011;60105;54.956;73.412;2022-10-12T13:55:29;48.22;;;17.00;;
72201;SDS011;60105;54.956;73.412;2022-10-12T13:58:00;58.25;;;20.92;;
72201;SDS011;60105;54.956;73.412;2022-10-12T14:00:26;57.63;;;21.03;;
72201;SDS011;60105;54.956;73.412;2022-10-12T14:02:54;45.20;;;17.50;;
72201;SDS011;60105;54.956;73.412;2022-10-12T14:05:31;43.63;;;14.82;;
72201;SDS011;60105;54.956;73.412;2022-10-12T14:08:10;59.25;;;17.50;;
72201;SDS011;60105;54.956;73.412;2022-10-12T14:10:40;44.25;;;14.77;;
72201;SDS011;60105;54.956;73.412;2022-10-12T14:13:14;41.10;;;15.20;;
72201;SDS011;60105;54.956;73.412;2022-10-12T14:15:48;43.72;;;14.63;;
72201;SDS011;60105;54.956;73.412;2022-10-12T14:23:46;31.13;;;14.07;;
72201;SDS011;60105;54.956;73.412;2022-10-12T14:28:51;33.80;;;14.18;;
72201;SDS011;60105;54.956;73.412;2022-10-12T14:31:18;37.40;;;12.90;;
72201;SDS011;60105;54.956;73.412;2022-10-12T14:34:22;35.22;;;13.45;;
72201;SDS011;60105;54.956;73.412;2022-10-12T14:37:20;24.15;;;12.18;;
72201;SDS011;60105;54.956;73.412;2022-10-12T14:39:49;33.70;;;13.93;;
72201;SDS011;60105;54.956;73.412;2022-10-12T14:42:18;27.15;;;13.20;;
72201;SDS011;60105;54.956;73.412;2022-10-12T14:44:52;28.83;;;12.90;;
72201;SDS011;60105;54.956;73.412;2022-10-12T14:49:46;24.13;;;12.93;;
72201;SDS011;60105;54.956;73.412;2022-10-12T14:55:29;26.52;;;12.07;;
72201;SDS011;60105;54.956;73.412;2022-10-12T14:58:03;32.63;;;13.13;;
72201;SDS011;60105;54.956;73.412;2022-10-12T15:00:35;25.13;;;11.65;;
72201;SDS011;60105;54.956;73.412;2022-10-12T15:03:07;25.00;;;11.93;;
72201;SDS011;60105;54.956;73.412;2022-10-12T15:05:33;25.93;;;12.70;;
72201;SDS011;60105;54.956;73.412;2022-10-12T15:08:00;29.15;;;12.23;;
72201;SDS011;60105;54.956;73.412;2022-10-12T15:10:32;27.08;;;13.45;;
72201;SDS011;60105;54.956;73.412;2022-10-12T15:12:58;26.77;;;12.57;;
72201;SDS011;60105;54.956;73.412;2022-10-12T15:18:03;25.40;;;13.67;;
72201;SDS011;60105;54.956;73.412;2022-10-12T15:20:29;29.08;;;13.70;;
72201;SDS011;60105;54.956;73.412;2022-10-12T15:22:57;29.23;;;13.00;;
72201;SDS011;60105;54.956;73.412;2022-10-12T15:28:00;26.27;;;13.55;;
72201;SDS011;60105;54.956;73.412;2022-10-12T15:30:29;25.80;;;12.93;;
72201;SDS011;60105;54.956;73.412;2022-10-12T15:32:56;25.90;;;13.07;;
72201;SDS011;60105;54.956;73.412;2022-10-12T15:35:23;25.67;;;12.88;;
72201;SDS011;60105;54.956;73.412;2022-10-12T15:37:51;23.98;;;12.77;;
72201;SDS011;60105;54.956;73.412;2022-10-12T15:40:21;22.67;;;12.65;;
72201;SDS011;60105;54.956;73.412;2022-10-12T15:42:47;26.70;;;12.82;;
72201;SDS011;60105;54.956;73.412;2022-10-12T15:45:25;20.08;;;10.57;;
72201;SDS011;60105;54.956;73.412;2022-10-12T15:47:53;20.23;;;10.55;;
72201;SDS011;60105;54.956;73.412;2022-10-12T15:50:26;20.95;;;9.70;;
72201;SDS011;60105;54.956;73.412;2022-10-12T15:52:54;18.25;;;10.07;;
72201;SDS011;60105;54.956;73.412;2022-10-12T15:55:22;17.80;;;9.82;;
72201;SDS011;60105;54.956;73.412;2022-10-12T15:57:55;22.50;;;10.40;;
72201;SDS011;60105;54.956;73.412;2022-10-12T16:00:23;32.15;;;10.18;;
72201;SDS011;60105;54.956;73.412;2022-10-12T16:02:51;22.52;;;11.15;;
72201;SDS011;60105;54.956;73.412;2022-10-12T16:05:24;19.48;;;10.57;;
72201;SDS011;60105;54.956;73.412;2022-10-12T16:07:50;22.17;;;13.07;;
72201;SDS011;60105;54.956;73.412;2022-10-12T16:10:28;26.52;;;14.40;;
72201;SDS011;60105;54.956;73.412;2022-10-12T16:13:10;27.48;;;15.75;;
72201;SDS011;60105;54.956;73.412;2022-10-12T16:15:38;36.33;;;17.48;;
72201;SDS011;60105;54.956;73.412;2022-10-12T16:18:05;38.47;;;20.25;;
72201;SDS011;60105;54.956;73.412;2022-10-12T16:20:36;40.80;;;20.60;;
72201;SDS011;60105;54.956;73.412;2022-10-12T16:23:05;37.35;;;18.52;;
72201;SDS011;60105;54.956;73.412;2022-10-12T16:25:33;44.40;;;22.35;;
72201;SDS011;60105;54.956;73.412;2022-10-12T16:28:00;36.20;;;20.05;;
72201;SDS011;60105;54.956;73.412;2022-10-12T16:30:26;37.90;;;20.10;;
72201;SDS011;60105;54.956;73.412;2022-10-12T16:32:53;38.83;;;19.40;;
72201;SDS011;60105;54.956;73.412;2022-10-12T16:35:19;44.63;;;20.73;;
72201;SDS011;60105;54.956;73.412;2022-10-12T16:37:46;38.90;;;20.30;;
72201;SDS011;60105;54.956;73.412;2022-10-12T16:40:13;32.28;;;18.00;;